Time;durP1;ratioP1;P1;durP2;ratioP2;P2;SDS_P1;SDS_P2;PMS_P1;PMS_P2;Temp;Humidity;BMP_temperature;BMP_pressure;BME280_temperature;BME280_humidity;BME280_pressure;Samples;Min_cycle;Max_cycle;Signal;HPM_P1;HPM_P2
2023/07/20 00:00:08;;;;;;;4.63;2.30;;;;;;;-145.69;39.80;51783.00;5093748;28;20285;-83
2023/07/20 00:02:35;;;;;;;4.70;2.20;;;;;;;-145.69;40.44;51814.66;5093620;28;20236;-83
2023/07/20 00:05:10;;;;;;;4.32;2.17;;;;;;;-145.69;40.36;51828.53;5094217;28;20198;-82
2023/07/20 00:07:39;;;;;;;3.42;2.10;;;;;;;-145.69;40.59;51798.81;5095595;28;20605;-84
2023/07/20 00:10:06;;;;;;;5.40;2.03;;;;;;;-145.69;40.57;51820.59;5075662;28;20638;-83
2023/07/20 00:12:36;;;;;;;5.47;2.10;;;;;;;-145.69;40.39;51786.94;5072704;28;20684;-83
2023/07/20 00:15:04;;;;;;;3.55;2.33;;;;;;;-145.69;40.95;51790.91;5074006;28;20686;-83
2023/07/20 00:17:32;;;;;;;5.03;2.40;;;;;;;-145.69;41.00;51814.66;5077915;28;20248;-83
2023/07/20 00:20:02;;;;;;;6.40;2.17;;;;;;;-145.69;41.12;51820.59;5073712;28;20206;-83
2023/07/20 00:22:29;;;;;;;3.35;2.10;;;;;;;-145.69;41.70;51798.81;5073892;28;20743;-84
2023/07/20 00:24:56;;;;;;;6.10;2.65;;;;;;;-145.69;41.71;51798.81;5080487;28;20206;-84
2023/07/20 00:27:24;;;;;;;4.35;2.00;;;;;;;-145.69;41.22;51806.75;5077283;28;20286;-83
2023/07/20 00:29:55;;;;;;;5.03;2.30;;;;;;;-145.69;41.79;51822.59;5073789;28;20206;-83
2023/07/20 00:32:24;;;;;;;4.13;2.58;;;;;;;-145.69;42.18;51812.69;5085718;28;20209;-87
2023/07/20 00:34:53;;;;;;;9.18;2.17;;;;;;;-145.69;42.05;51830.50;5096888;28;20200;-83
2023/07/20 00:37:19;;;;;;;2.50;1.70;;;;;;;-145.69;41.96;51786.94;5098854;28;20255;-83
2023/07/20 00:39:46;;;;;;;7.00;2.10;;;;;;;-145.69;42.57;51814.66;5099923;28;20600;-84
2023/07/20 00:42:12;;;;;;;12.60;3.25;;;;;;;-145.69;42.46;51828.53;5109201;28;20198;-84
2023/07/20 00:44:39;;;;;;;3.42;2.10;;;;;;;-145.69;43.47;51858.22;5106285;28;20202;-84
2023/07/20 00:47:07;;;;;;;4.88;2.08;;;;;;;-145.69;43.20;51848.34;5110565;28;20209;-84
2023/07/20 00:49:34;;;;;;;6.82;2.20;;;;;;;-145.69;43.54;51836.44;5105073;28;20209;-85
2023/07/20 00:52:02;;;;;;;7.10;2.20;;;;;;;-145.69;42.69;51830.50;5107163;28;20205;-84
2023/07/20 00:54:31;;;;;;;5.40;2.47;;;;;;;-145.69;42.90;51846.34;5106390;28;20198;-85
2023/07/20 00:56:58;;;;;;;7.10;2.35;;;;;;;-145.69;43.28;51812.69;5108948;28;20739;-85
2023/07/20 00:59:25;;;;;;;3.90;1.95;;;;;;;-145.69;42.65;51810.72;5103679;28;20293;-84
2023/07/20 01:01:52;;;;;;;7.25;2.13;;;;;;;-145.69;42.69;51846.34;5107893;28;20197;-84
2023/07/20 01:04:21;;;;;;;6.88;2.30;;;;;;;-145.69;43.02;51830.50;5101109;28;20241;-84
2023/07/20 01:06:54;;;;;;;4.28;2.50;;;;;;;-145.69;43.43;51834.47;5102867;28;20657;-84
2023/07/20 01:09:27;;;;;;;10.02;2.50;;;;;;;-145.69;43.32;51830.50;5083809;28;20195;-85
2023/07/20 01:12:01;;;;;;;4.20;2.03;;;;;;;-145.69;43.52;51810.72;5102723;28;20205;-85
2023/07/20 01:14:27;;;;;;;4.30;2.58;;;;;;;-145.69;43.63;51822.59;5111761;28;20720;-84
2023/07/20 01:16:54;;;;;;;6.80;2.30;;;;;;;-145.69;44.32;51836.44;5109495;28;20284;-84
2023/07/20 01:19:22;;;;;;;3.47;2.33;;;;;;;-145.69;44.61;51842.38;5107574;28;20202;-84
2023/07/20 01:21:54;;;;;;;4.25;2.05;;;;;;;-145.69;44.84;51812.69;5110393;28;20537;-85
2023/07/20 01:24:39;;;;;;;4.18;2.00;;;;;;;-145.69;45.07;51816.66;5107429;28;20251;-85
2023/07/20 01:27:32;;;;;;;4.18;2.50;;;;;;;-145.69;45.84;51814.66;5111831;28;20210;-85
2023/07/20 01:30:26;;;;;;;5.03;2.38;;;;;;;-145.69;46.70;51818.63;5113747;28;20202;-84
2023/07/20 01:32:58;;;;;;;8.02;2.25;;;;;;;-145.69;47.04;51842.38;5110879;28;20198;-84
2023/07/20 01:35:28;;;;;;;6.47;2.50;;;;;;;-145.69;48.03;51842.38;5112976;28;20226;-84
2023/07/20 01:37:55;;;;;;;4.88;2.63;;;;;;;-145.69;48.48;51856.25;5105231;28;20244;-84
2023/07/20 01:40:25;;;;;;;5.28;2.17;;;;;;;-145.69;48.52;51852.28;5110651;28;20623;-84
2023/07/20 01:42:52;;;;;;;6.13;2.30;;;;;;;-145.69;48.58;51854.28;5103214;28;20221;-84
2023/07/20 01:45:19;;;;;;;4.38;2.25;;;;;;;-145.69;48.71;51842.38;5106197;28;20195;-84
2023/07/20 01:47:45;;;;;;;6.63;2.63;;;;;;;-145.69;48.92;51864.16;5112152;28;20206;-83
2023/07/20 01:50:13;;;;;;;5.13;2.30;;;;;;;-145.69;49.46;51854.28;5110749;28;20198;-83
2023/07/20 01:52:42;;;;;;;3.88;2.50;;;;;;;-145.69;49.63;51846.34;5109358;28;20206;-84
2023/07/20 01:55:09;;;;;;;4.82;2.25;;;;;;;-145.69;50.25;51818.63;5110562;28;20205;-84
2023/07/20 01:57:36;;;;;;;5.07;2.30;;;;;;;-145.69;50.59;51866.16;5110772;28;20198;-84
2023/07/20 02:00:02;;;;;;;4.13;2.78;;;;;;;-145.69;50.92;51850.31;5111979;28;20202;-85
2023/07/20 02:02:29;;;;;;;4.97;2.65;;;;;;;-145.69;51.13;51860.22;5107674;28;20205;-84
2023/07/20 02:04:55;;;;;;;4.25;2.38;;;;;;;-145.69;51.63;51830.50;5110194;28;20255;-84
2023/07/20 02:07:23;;;;;;;5.13;2.22;;;;;;;-145.69;51.81;51812.69;5102372;28;20611;-84
2023/07/20 02:09:50;;;;;;;5.35;2.40;;;;;;;-145.69;52.40;51870.13;5109184;28;20209;-84
2023/07/20 02:12:16;;;;;;;4.35;2.33;;;;;;;-145.69;52.67;51816.66;5106488;28;20198;-85
2023/07/20 02:14:43;;;;;;;3.75;2.47;;;;;;;-145.69;52.90;51848.34;5093448;28;20298;-84
2023/07/20 02:17:11;;;;;;;5.97;2.65;;;;;;;-145.69;53.23;51852.28;5091213;28;20221;-85
2023/07/20 02:19:38;;;;;;;5.57;2.20;;;;;;;-145.69;53.40;51858.22;5099762;28;20652;-84
2023/07/20 02:22:05;;;;;;;7.25;2.95;;;;;;;-145.69;53.58;51885.94;5132212;28;20201;-83
2023/07/20 02:24:33;;;;;;;7.25;2.58;;;;;;;-145.69;53.96;51828.53;5121171;28;20256;-84
2023/07/20 02:27:00;;;;;;;5.47;2.60;;;;;;;-145.69;54.16;51848.34;5118163;28;20682;-85
2023/07/20 02:29:26;;;;;;;4.05;2.50;;;;;;;-145.69;54.70;51850.31;5123906;28;20208;-84
2023/07/20 02:31:53;;;;;;;5.78;2.60;;;;;;;-145.69;55.35;51846.34;5119460;28;20224;-85
2023/07/20 02:34:20;;;;;;;4.47;2.70;;;;;;;-145.69;55.52;51870.13;5126121;28;20209;-85
2023/07/20 02:36:48;;;;;;;3.70;2.55;;;;;;;-145.69;55.66;51846.34;5110425;28;20229;-84
2023/07/20 02:39:14;;;;;;;4.07;2.63;;;;;;;-145.69;56.17;51862.19;5104907;28;20206;-85
2023/07/20 02:41:42;;;;;;;6.80;2.53;;;;;;;-145.69;56.39;51882.00;5108862;28;20202;-84
2023/07/20 02:44:09;;;;;;;4.25;2.40;;;;;;;-145.69;56.28;51852.28;5096580;28;20757;-83
2023/07/20 02:46:36;;;;;;;8.70;2.72;;;;;;;-145.69;56.63;51878.03;5102043;28;20205;-84
2023/07/20 02:49:03;;;;;;;4.00;2.42;;;;;;;-145.69;56.62;51844.38;5105539;28;20198;-84
2023/07/20 02:51:31;;;;;;;5.32;2.72;;;;;;;-145.69;57.05;51891.88;5104086;28;20271;-84
2023/07/20 02:53:58;;;;;;;4.55;2.33;;;;;;;-145.69;56.60;51858.22;5106709;28;20198;-84
2023/07/20 02:56:25;;;;;;;4.95;2.90;;;;;;;-145.69;56.52;51885.94;5104783;28;20232;-83
2023/07/20 02:58:53;;;;;;;5.82;2.40;;;;;;;-145.69;57.03;51866.16;5104226;28;20265;-84
2023/07/20 03:01:19;;;;;;;4.72;2.88;;;;;;;-145.69;56.89;51893.88;5102141;28;20205;-84
2023/07/20 03:03:46;;;;;;;4.60;2.47;;;;;;;-145.69;57.10;51858.22;5107600;28;20237;-84
2023/07/20 03:06:14;;;;;;;5.25;3.22;;;;;;;-145.69;57.15;51834.47;5103512;28;20194;-84
2023/07/20 03:08:41;;;;;;;5.90;2.75;;;;;;;-145.69;57.45;51862.19;5104709;28;20220;-84
2023/07/20 03:11:08;;;;;;;5.10;2.38;;;;;;;-145.69;57.35;51897.84;5097331;28;20201;-84
2023/07/20 03:13:34;;;;;;;5.20;2.40;;;;;;;-145.69;57.54;51862.19;5097077;28;20231;-84
2023/07/20 03:16:02;;;;;;;6.35;2.72;;;;;;;-145.69;57.65;51899.81;5097218;28;20202;-83
2023/07/20 03:18:29;;;;;;;7.30;2.40;;;;;;;-145.69;58.59;51897.84;5100309;28;20217;-84
2023/07/20 03:20:55;;;;;;;5.30;2.65;;;;;;;-145.69;58.73;51883.97;5103037;28;20199;-84
2023/07/20 03:23:22;;;;;;;5.45;2.40;;;;;;;-145.69;58.69;51872.09;5099418;28;20225;-84
2023/07/20 03:25:48;;;;;;;8.10;2.83;;;;;;;-145.69;59.15;51866.16;5102671;28;20202;-83
2023/07/20 03:28:15;;;;;;;5.13;2.42;;;;;;;-145.69;59.22;51870.13;5105280;28;20191;-85
2023/07/20 03:30:41;;;;;;;4.38;2.45;;;;;;;-145.69;58.85;51864.16;5109447;28;20198;-84
2023/07/20 03:33:09;;;;;;;4.15;2.58;;;;;;;-145.69;59.26;51895.84;5095171;28;20198;-84
2023/07/20 03:35:36;;;;;;;4.22;2.28;;;;;;;-145.69;59.48;51874.06;5096577;28;20550;-84
2023/07/20 03:38:02;;;;;;;4.82;2.95;;;;;;;-145.69;59.65;51878.03;5099438;28;20197;-83
2023/07/20 03:40:29;;;;;;;7.45;2.95;;;;;;;-145.69;60.16;51901.78;5094445;28;20198;-84
2023/07/20 03:42:55;;;;;;;6.80;3.28;;;;;;;-145.69;60.06;51878.03;5094912;28;20198;-83
2023/07/20 03:45:23;;;;;;;5.00;2.85;;;;;;;-145.69;60.18;51885.94;5095783;28;20205;-84
2023/07/20 03:47:50;;;;;;;4.45;2.80;;;;;;;-145.69;59.84;51870.13;5104103;28;20292;-84
2023/07/20 03:50:18;;;;;;;6.30;2.97;;;;;;;-145.69;59.89;51903.78;5097182;28;20210;-83
2023/07/20 03:52:45;;;;;;;4.47;2.40;;;;;;;-145.69;59.89;51870.13;5098466;28;20653;-83
2023/07/20 03:55:11;;;;;;;5.93;2.80;;;;;;;-145.69;60.26;51878.03;5098514;28;20202;-83
2023/07/20 03:57:38;;;;;;;5.25;2.80;;;;;;;-145.69;60.02;51911.69;5099761;28;20198;-83
2023/07/20 04:00:07;;;;;;;8.07;2.87;;;;;;;-145.69;59.83;51876.06;5096946;28;20718;-83
2023/07/20 04:02:34;;;;;;;5.80;2.83;;;;;;;-145.69;59.60;51885.94;5099812;28;20197;-84
2023/07/20 04:05:00;;;;;;;6.70;2.60;;;;;;;-145.69;59.28;51882.00;5101309;28;20230;-83
2023/07/20 04:07:28;;;;;;;5.07;2.63;;;;;;;-145.69;58.96;51878.03;5094546;28;20534;-83
2023/07/20 04:09:55;;;;;;;7.18;3.28;;;;;;;-145.69;58.65;51911.69;5098939;28;20603;-84
2023/07/20 04:12:21;;;;;;;6.43;2.83;;;;;;;-145.69;58.28;51864.16;5097289;28;20202;-83
2023/07/20 04:14:48;;;;;;;4.22;3.00;;;;;;;-145.69;57.94;51882.00;5097062;28;20283;-83
2023/07/20 04:17:14;;;;;;;3.92;2.67;;;;;;;-145.69;58.11;51874.06;5093614;28;20202;-84
2023/07/20 04:19:41;;;;;;;5.78;2.70;;;;;;;-145.69;57.46;51874.06;5100750;28;20202;-83
2023/07/20 04:22:07;;;;;;;5.28;2.65;;;;;;;-145.69;57.48;51909.72;5096962;28;20226;-83
2023/07/20 04:24:35;;;;;;;4.90;2.47;;;;;;;-145.69;57.38;51842.38;5105488;28;20225;-84
2023/07/20 04:27:02;;;;;;;8.82;2.45;;;;;;;-145.69;57.27;51866.16;5100591;28;20198;-83
2023/07/20 04:29:28;;;;;;;6.40;2.88;;;;;;;-145.69;56.98;51872.09;5103705;28;20200;-83
2023/07/20 04:31:55;;;;;;;5.15;2.30;;;;;;;-145.69;57.05;51860.22;5103019;28;20433;-83
2023/07/20 04:34:21;;;;;;;7.10;2.65;;;;;;;-145.69;56.63;51852.28;5099023;28;20205;-83
2023/07/20 04:36:48;;;;;;;4.05;2.63;;;;;;;-145.69;56.36;51830.50;5096578;28;20653;-84
2023/07/20 04:39:14;;;;;;;5.05;2.63;;;;;;;-145.69;56.04;51876.06;5102496;28;20288;-83
2023/07/20 04:41:42;;;;;;;3.78;2.42;;;;;;;-145.69;55.82;51872.09;5096474;28;20197;-83
2023/07/20 04:44:09;;;;;;;6.15;2.53;;;;;;;-145.69;56.02;51846.34;5098280;28;20244;-83
2023/07/20 04:46:35;;;;;;;3.15;2.35;;;;;;;-145.69;55.40;51846.34;5097927;28;20256;-83
2023/07/20 04:49:02;;;;;;;7.35;2.53;;;;;;;-145.69;55.28;51842.38;5098661;28;20193;-85
2023/07/20 04:51:30;;;;;;;4.75;2.47;;;;;;;-145.69;55.19;51868.13;5107851;28;20198;-84
2023/07/20 04:53:56;;;;;;;4.70;2.70;;;;;;;-145.69;54.93;51834.47;5106735;28;20205;-84
2023/07/20 04:56:24;;;;;;;6.47;2.58;;;;;;;-145.69;55.14;51878.03;5108873;28;20202;-84
2023/07/20 04:58:52;;;;;;;5.32;2.38;;;;;;;-145.69;54.96;51846.34;5102032;28;20207;-83
2023/07/20 05:01:18;;;;;;;4.20;2.33;;;;;;;-145.69;54.84;51822.59;5109476;28;20565;-84
2023/07/20 05:03:45;;;;;;;3.40;2.40;;;;;;;-145.69;54.94;51862.19;5111922;28;20320;-84
2023/07/20 05:06:12;;;;;;;4.80;2.40;;;;;;;-145.69;54.60;51838.44;5108699;28;20203;-84
2023/07/20 05:08:39;;;;;;;4.55;2.20;;;;;;;-145.69;54.71;51846.34;5111009;28;20235;-84
2023/07/20 05:11:05;;;;;;;4.10;2.60;;;;;;;-145.69;54.60;51848.34;5112470;28;20198;-84
2023/07/20 05:13:32;;;;;;;3.25;2.20;;;;;;;-145.69;54.23;51814.66;5094101;28;20233;-84
2023/07/20 05:16:00;;;;;;;7.47;2.60;;;;;;;-145.69;53.83;51838.44;5109798;28;20205;-83
2023/07/20 05:18:26;;;;;;;5.90;2.63;;;;;;;-145.69;54.08;51828.53;5102549;28;20202;-84
2023/07/20 05:20:54;;;;;;;4.05;2.40;;;;;;;-145.69;53.50;51798.81;5105572;28;20199;-83
2023/07/20 05:23:21;;;;;;;3.22;2.15;;;;;;;-145.69;53.05;51814.66;5106483;28;20202;-84
2023/07/20 05:25:54;;;;;;;2.78;2.05;;;;;;;-145.69;52.73;51832.50;5109266;28;20226;-84
2023/07/20 05:28:21;;;;;;;5.20;2.40;;;;;;;-145.69;52.07;51840.41;5107954;28;20235;-85
2023/07/20 05:30:47;;;;;;;4.20;2.42;;;;;;;-145.69;51.69;51783.00;5115117;28;20216;-83
2023/07/20 05:33:15;;;;;;;4.05;2.40;;;;;;;-145.69;50.88;51798.81;5113355;28;20194;-83
2023/07/20 05:35:42;;;;;;;3.45;2.53;;;;;;;-145.69;50.19;51822.59;5108692;28;20194;-83
2023/07/20 05:38:08;;;;;;;3.80;2.13;;;;;;;-145.69;49.83;51806.75;5103394;28;20194;-84
2023/07/20 05:40:39;;;;;;;4.05;2.25;;;;;;;-145.69;49.43;51822.59;5111834;28;20228;-84
2023/07/20 05:43:05;;;;;;;4.57;2.05;;;;;;;-145.69;49.11;51806.75;5110016;28;20198;-83
2023/07/20 05:45:32;;;;;;;3.17;2.10;;;;;;;-145.69;49.41;51800.81;5101238;28;20234;-83
2023/07/20 05:47:59;;;;;;;5.07;1.92;;;;;;;-145.69;48.79;51798.81;5098744;28;20229;-83
2023/07/20 05:50:27;;;;;;;4.60;1.92;;;;;;;-145.69;47.37;51798.81;5101269;28;20198;-83
2023/07/20 05:52:54;;;;;;;5.65;2.20;;;;;;;-145.69;46.55;51775.06;5111411;28;20198;-84
2023/07/20 05:55:21;;;;;;;4.60;2.15;;;;;;;-145.69;46.86;51796.84;5105305;28;20838;-83
2023/07/20 05:57:48;;;;;;;3.40;2.17;;;;;;;-145.69;45.88;51783.00;5104631;28;20206;-84
2023/07/20 06:00:18;;;;;;;6.15;1.90;;;;;;;-145.69;45.50;51763.19;5108565;28;20206;-84
2023/07/20 06:02:46;;;;;;;5.25;1.88;;;;;;;-145.69;44.77;51802.78;5112033;28;20202;-84
2023/07/20 06:05:12;;;;;;;5.03;2.13;;;;;;;-145.69;43.15;51814.66;5112233;28;20210;-84
2023/07/20 06:07:52;;;;;;;6.97;2.17;;;;;;;-145.69;41.36;51761.22;5112892;28;20667;-85
2023/07/20 06:10:20;;;;;;;4.88;1.80;;;;;;;-145.69;41.26;51775.06;5113706;28;20202;-84
2023/07/20 06:12:46;;;;;;;4.00;2.03;;;;;;;-145.69;41.56;51773.09;5114343;28;20204;-84
2023/07/20 06:15:27;;;;;;;5.25;1.90;;;;;;;-145.69;40.97;51747.34;5096619;28;20561;-85
2023/07/20 06:17:55;;;;;;;5.68;2.03;;;;;;;-145.69;40.66;51753.28;5083766;28;20747;-84
2023/07/20 06:20:22;;;;;;;4.78;2.30;;;;;;;-145.69;40.17;51790.91;5088884;28;20199;-85
2023/07/20 06:22:51;;;;;;;4.88;1.67;;;;;;;-145.69;40.12;51727.53;5091611;28;20198;-84
2023/07/20 06:25:17;;;;;;;4.07;1.80;;;;;;;-145.69;40.79;51763.19;5091891;28;20230;-84
2023/07/20 06:27:44;;;;;;;3.10;1.70;;;;;;;-145.69;39.61;51749.31;5087391;28;20205;-84
2023/07/20 06:30:11;;;;;;;6.40;1.95;;;;;;;-145.69;39.29;51739.44;5106794;28;20194;-84
2023/07/20 06:32:39;;;;;;;3.33;1.85;;;;;;;-145.69;39.24;51735.47;5101302;28;20280;-84
2023/07/20 06:35:08;;;;;;;4.15;2.10;;;;;;;-145.69;38.61;51747.34;5102904;28;20197;-84
2023/07/20 06:37:34;;;;;;;4.28;1.70;;;;;;;-145.69;38.67;51755.25;5103576;28;20198;-83
2023/07/20 06:40:03;;;;;;;4.38;2.00;;;;;;;-145.69;38.10;51759.22;5094496;28;20248;-84
2023/07/20 06:42:30;;;;;;;4.43;2.10;;;;;;;-145.69;38.45;51790.91;5096215;28;20209;-83
2023/07/20 06:44:57;;;;;;;4.20;1.92;;;;;;;-145.69;38.01;51727.53;5094058;28;20265;-83
2023/07/20 06:47:24;;;;;;;4.22;2.15;;;;;;;-145.69;38.40;51727.53;5092534;28;20882;-83
2023/07/20 06:49:50;;;;;;;4.28;1.83;;;;;;;-145.69;38.02;51725.56;5096784;28;20195;-83
2023/07/20 06:52:17;;;;;;;5.70;2.00;;;;;;;-145.69;38.46;51747.34;5104898;28;20205;-85
2023/07/20 06:54:43;;;;;;;3.72;1.60;;;;;;;-145.69;37.86;51739.44;5102475;28;20210;-82
2023/07/20 06:57:11;;;;;;;3.42;1.70;;;;;;;-145.69;37.21;51691.91;5095679;28;20571;-85
2023/07/20 06:59:38;;;;;;;3.47;2.00;;;;;;;-145.69;37.21;51739.44;5095295;28;20210;-84
2023/07/20 07:02:05;;;;;;;8.15;2.00;;;;;;;-145.69;36.76;51727.53;5096795;28;20202;-83
2023/07/20 07:04:32;;;;;;;5.57;2.38;;;;;;;-145.69;36.78;51713.69;5094593;28;20279;-83
2023/07/20 07:06:59;;;;;;;5.60;2.03;;;;;;;-145.69;37.07;51715.66;5094928;28;20190;-85
2023/07/20 07:09:26;;;;;;;2.90;1.60;;;;;;;-145.69;36.84;51743.38;5095584;28;20202;-83
2023/07/20 07:11:53;;;;;;;6.57;2.38;;;;;;;-145.69;36.22;51729.53;5097671;28;20225;-85
2023/07/20 07:14:21;;;;;;;4.57;2.15;;;;;;;-145.69;37.02;51755.25;5094543;28;20234;-83
2023/07/20 07:16:47;;;;;;;6.25;1.83;;;;;;;-145.69;36.41;51719.63;5091272;28;20201;-83
2023/07/20 07:19:14;;;;;;;3.85;1.80;;;;;;;-145.69;37.06;51743.38;5100529;28;20284;-84
2023/07/20 07:21:41;;;;;;;3.95;2.00;;;;;;;-145.69;37.04;51727.53;5096708;28;20201;-83
2023/07/20 07:24:09;;;;;;;3.25;1.70;;;;;;;-145.69;36.79;51753.28;5095418;28;20662;-82
2023/07/20 07:26:36;;;;;;;4.55;2.00;;;;;;;-145.69;37.24;51735.47;5096027;28;20194;-82
2023/07/20 07:29:03;;;;;;;6.68;2.05;;;;;;;-145.69;37.86;51731.50;5094013;28;20653;-85
2023/07/20 07:31:31;;;;;;;4.75;2.10;;;;;;;-145.69;37.76;51719.63;5094867;28;20560;-84
2023/07/20 07:33:58;;;;;;;4.40;2.03;;;;;;;-145.69;37.81;51747.34;5094546;28;20667;-82
2023/07/20 07:36:25;;;;;;;4.50;1.83;;;;;;;-145.69;37.91;51727.53;5094191;28;20198;-84
2023/07/20 07:38:51;;;;;;;4.53;2.47;;;;;;;-145.69;38.26;51759.22;5095010;28;20198;-84
2023/07/20 07:41:18;;;;;;;6.68;2.00;;;;;;;-145.69;38.36;51743.38;5097667;28;20198;-83
2023/07/20 07:43:44;;;;;;;3.10;1.85;;;;;;;-145.69;37.75;51763.19;5094720;28;20209;-87
2023/07/20 07:46:11;;;;;;;3.60;2.05;;;;;;;-145.69;38.52;51779.03;5094262;28;20229;-83
2023/07/20 07:48:39;;;;;;;3.33;1.63;;;;;;;-145.69;38.21;51779.03;5093956;28;20198;-83
2023/07/20 07:51:08;;;;;;;3.35;1.83;;;;;;;-145.69;38.13;51775.06;5092874;28;20195;-84
2023/07/20 07:53:38;;;;;;;7.05;1.50;;;;;;;-145.69;38.07;51765.16;5093666;28;20198;-84
2023/07/20 07:56:11;;;;;;;4.97;2.00;;;;;;;-145.69;37.77;51757.25;5097492;28;20565;-84
2023/07/20 07:58:38;;;;;;;3.55;2.13;;;;;;;-145.69;38.65;51767.16;5098820;28;20202;-84
2023/07/20 08:01:07;;;;;;;4.88;1.90;;;;;;;-145.69;38.12;51767.16;5093085;28;20285;-83
2023/07/20 08:03:35;;;;;;;5.60;1.92;;;;;;;-145.69;37.66;51747.34;5093722;28;20220;-83
2023/07/20 08:06:04;;;;;;;4.65;1.88;;;;;;;-145.69;37.87;51767.16;5091147;28;20267;-82
2023/07/20 08:08:31;;;;;;;5.50;2.03;;;;;;;-145.69;38.06;51719.63;5078742;28;20202;-84
2023/07/20 08:10:58;;;;;;;2.42;1.50;;;;;;;-145.69;37.96;51729.53;5081191;28;20217;-84
2023/07/20 08:13:27;;;;;;;6.22;2.17;;;;;;;-145.69;38.83;51767.16;5075395;28;20288;-84
2023/07/20 08:15:58;;;;;;;8.60;2.42;;;;;;;-145.69;37.38;51741.41;5077088;28;20206;-83
2023/07/20 08:18:36;;;;;;;3.60;1.88;;;;;;;-145.69;37.11;51747.34;5109625;28;20290;-83
2023/07/20 08:21:04;;;;;;;3.75;1.63;;;;;;;-145.69;36.93;51701.81;5101978;28;20255;-84
2023/07/20 08:23:34;;;;;;;3.10;1.67;;;;;;;-145.69;36.60;51719.63;5097274;28;20204;-84
2023/07/20 08:26:03;;;;;;;4.05;2.15;;;;;;;-145.69;36.96;51727.53;5097257;28;20627;-86
2023/07/20 08:28:30;;;;;;;4.32;2.15;;;;;;;-145.69;36.16;51695.88;5093631;28;20222;-82
2023/07/20 08:31:02;;;;;;;4.00;1.80;;;;;;;-145.69;36.16;51743.38;5097146;28;20190;-84
2023/07/20 08:33:33;;;;;;;3.58;2.00;;;;;;;-145.69;35.96;51703.78;5094323;28;20244;-86
2023/07/20 08:36:01;;;;;;;5.45;1.85;;;;;;;-145.69;35.34;51737.44;5094937;28;20205;-85
2023/07/20 08:38:29;;;;;;;2.72;1.70;;;;;;;-145.69;35.09;51683.97;5096158;28;20198;-84
2023/07/20 08:40:56;;;;;;;2.97;1.40;;;;;;;-145.69;34.34;51723.59;5096568;28;20211;-82
2023/07/20 08:43:31;;;;;;;8.77;1.70;;;;;;;-145.69;34.49;51723.59;5093226;28;20629;-83
2023/07/20 08:45:58;;;;;;;4.18;1.85;;;;;;;-145.69;34.40;51715.66;5093265;28;20310;-83
2023/07/20 08:48:31;;;;;;;3.70;1.48;;;;;;;-145.69;34.00;51680.03;5093859;28;20197;-85
2023/07/20 08:51:00;;;;;;;2.80;1.77;;;;;;;-145.69;33.97;51699.81;5094971;28;20263;-85
2023/07/20 08:53:27;;;;;;;5.55;1.50;;;;;;;-145.69;33.77;51707.75;5094835;28;20198;-86
2023/07/20 08:55:57;;;;;;;5.22;1.58;;;;;;;-145.69;33.58;51711.72;5095164;28;20198;-83
2023/07/20 08:58:25;;;;;;;3.45;1.55;;;;;;;-145.69;33.22;51678.03;5093606;28;20206;-85
2023/07/20 09:00:52;;;;;;;6.65;1.70;;;;;;;-145.69;33.22;51691.91;5094136;28;20198;-83
2023/07/20 09:03:22;;;;;;;4.05;1.30;;;;;;;-145.69;32.87;51691.91;5095116;28;20250;-84
2023/07/20 09:05:49;;;;;;;2.33;1.20;;;;;;;-145.69;33.18;51687.94;5096676;28;20583;-83
2023/07/20 09:08:16;;;;;;;1.55;1.20;;;;;;;-145.69;32.21;51650.31;5097536;28;20194;-86
2023/07/20 09:10:47;;;;;;;3.58;1.65;;;;;;;-145.69;32.07;51644.38;5100437;28;20227;-85
2023/07/20 09:13:17;;;;;;;3.47;1.08;;;;;;;-145.69;32.30;51664.19;5097455;28;20230;-83
2023/07/20 09:15:47;;;;;;;4.95;1.50;;;;;;;-145.69;31.84;51680.03;5096946;28;20236;-84
2023/07/20 09:18:24;;;;;;;2.20;1.40;;;;;;;-145.69;31.75;51648.34;5096365;28;20437;-85
2023/07/20 09:20:53;;;;;;;2.25;1.17;;;;;;;-145.69;32.30;51652.31;5096586;28;20205;-84
2023/07/20 09:23:20;;;;;;;2.22;1.20;;;;;;;-145.69;31.68;51656.25;5096208;28;20202;-83
2023/07/20 09:25:52;;;;;;;4.32;1.65;;;;;;;-145.69;31.40;51660.22;5096799;28;20562;-83
2023/07/20 09:28:20;;;;;;;2.78;1.27;;;;;;;-145.69;31.68;51628.53;5095545;28;20255;-84
2023/07/20 09:30:47;;;;;;;4.00;1.33;;;;;;;-145.69;31.86;51680.03;5094985;28;20200;-84
2023/07/20 09:33:22;;;;;;;2.92;1.42;;;;;;;-145.69;31.32;51640.44;5095825;28;20198;-84
2023/07/20 09:35:49;;;;;;;3.17;1.42;;;;;;;-145.69;31.73;51644.38;5096741;28;20198;-83
2023/07/20 09:38:16;;;;;;;2.92;1.40;;;;;;;-145.69;31.51;51666.16;5095780;28;20308;-84
2023/07/20 09:40:46;;;;;;;2.03;1.30;;;;;;;-145.69;31.40;51636.47;5097483;28;20262;-82
2023/07/20 09:43:13;;;;;;;4.30;1.38;;;;;;;-145.69;32.07;51644.38;5096655;28;20202;-85
2023/07/20 09:45:49;;;;;;;3.45;1.23;;;;;;;-145.69;31.55;51652.31;5095746;28;20696;-84
2023/07/20 09:48:15;;;;;;;2.40;1.38;;;;;;;-145.69;31.24;51664.19;5096816;28;20237;-84
2023/07/20 09:50:52;;;;;;;4.00;1.30;;;;;;;-145.69;31.58;51652.31;5096672;28;20201;-84
2023/07/20 09:53:21;;;;;;;3.90;1.20;;;;;;;-145.69;31.01;51652.31;5096651;28;20216;-81
2023/07/20 09:55:53;;;;;;;4.10;1.27;;;;;;;-145.69;31.04;51638.44;5097893;28;20248;-85
2023/07/20 09:58:27;;;;;;;1.75;1.20;;;;;;;-145.69;31.26;51654.28;5097986;28;20198;-83
2023/07/20 10:01:06;;;;;;;3.40;1.20;;;;;;;-145.69;31.40;51654.28;5097581;28;20616;-85
2023/07/20 10:03:39;;;;;;;2.78;1.10;;;;;;;-145.69;31.70;51682.00;5094908;28;20243;-82
2023/07/20 10:06:08;;;;;;;4.25;1.23;;;;;;;-145.69;31.83;51685.97;5096231;28;20291;-86
2023/07/20 10:08:41;;;;;;;2.42;1.05;;;;;;;-145.69;32.43;51664.19;5097029;28;20226;-84
2023/07/20 10:11:09;;;;;;;4.05;1.05;;;;;;;-145.69;32.01;51656.25;5095763;28;20194;-84
2023/07/20 10:13:51;;;;;;;3.80;1.70;;;;;;;-145.69;31.71;51664.19;5094489;28;20232;-82
2023/07/20 10:16:25;;;;;;;7.13;1.45;;;;;;;-145.69;31.70;51660.22;5076128;28;20205;-84
2023/07/20 10:18:58;;;;;;;3.08;1.25;;;;;;;-145.69;31.36;51658.25;5075672;28;20282;-86
2023/07/20 10:21:26;;;;;;;4.00;1.15;;;;;;;-145.69;31.31;51672.09;5075497;28;20198;-84
2023/07/20 10:24:01;;;;;;;1.50;0.93;;;;;;;-145.69;31.51;51668.16;5074974;28;20205;-84
2023/07/20 10:26:29;;;;;;;2.05;1.30;;;;;;;-145.69;30.91;51642.41;5090279;28;20228;-83
2023/07/20 10:28:57;;;;;;;2.80;1.08;;;;;;;-145.69;30.95;51672.09;5074936;28;20593;-84
2023/07/20 10:31:28;;;;;;;1.35;0.98;;;;;;;-145.69;31.89;51668.16;5075299;28;20554;-83
2023/07/20 10:33:56;;;;;;;2.72;1.25;;;;;;;-145.69;31.04;51660.22;5075989;28;20195;-83
2023/07/20 10:36:30;;;;;;;4.40;1.10;;;;;;;-145.69;31.58;51650.31;5074992;28;20215;-84
2023/07/20 10:38:57;;;;;;;0.98;0.88;;;;;;;-145.69;31.88;51672.09;5075296;28;20228;-85
2023/07/20 10:41:29;;;;;;;1.77;1.10;;;;;;;-145.69;31.53;51646.38;5074875;28;20289;-84
2023/07/20 10:44:01;;;;;;;2.40;1.08;;;;;;;-145.69;31.50;51678.03;5075425;28;20202;-83
2023/07/20 10:46:51;;;;;;;2.28;1.23;;;;;;;-145.69;31.01;51660.22;5074845;28;20272;-86
2023/07/20 10:49:26;;;;;;;4.53;1.90;;;;;;;-145.69;32.03;51662.22;5074918;28;20280;-85
2023/07/20 10:52:02;;;;;;;2.95;1.45;;;;;;;-145.69;32.34;51658.25;5075706;28;20653;-85
2023/07/20 10:54:51;;;;;;;1.77;1.15;;;;;;;-145.69;31.43;51668.16;5075759;28;20202;-81
2023/07/20 10:57:43;;;;;;;3.00;1.20;;;;;;;-145.69;30.92;51662.22;5076010;28;20543;-84
2023/07/20 11:00:23;;;;;;;3.03;1.20;;;;;;;-145.69;31.48;51640.44;5072914;28;20202;-84
2023/07/20 11:02:59;;;;;;;4.00;1.20;;;;;;;-145.69;31.85;51652.31;5074450;28;20254;-84
2023/07/20 11:05:37;;;;;;;2.17;1.10;;;;;;;-145.69;30.97;51652.31;5093789;28;20301;-85
2023/07/20 11:08:08;;;;;;;1.83;1.00;;;;;;;-145.69;31.59;51652.31;5094754;28;20229;-85
2023/07/20 11:10:35;;;;;;;2.38;1.25;;;;;;;-145.69;31.46;51668.16;5094776;28;20197;-83
2023/07/20 11:13:18;;;;;;;3.00;1.20;;;;;;;-145.69;30.50;51632.50;5094896;28;20649;-85
2023/07/20 11:16:06;;;;;;;2.03;1.25;;;;;;;-145.69;30.40;51666.16;5094868;28;20206;-85
2023/07/20 11:18:39;;;;;;;1.92;1.15;;;;;;;-145.69;30.56;51654.28;5094612;28;20206;-84
2023/07/20 11:21:09;;;;;;;2.40;1.00;;;;;;;-145.69;30.52;51632.50;5094528;28;20229;-84
2023/07/20 11:23:40;;;;;;;2.58;1.20;;;;;;;-145.69;30.65;51620.63;5094091;28;20201;-85